Upper Mahanoy, Pennsylvania
Current Conditions -  °F | °C
As of 3:53 PM on Friday 19 Dec 2014 (Local Time) from KSEG Reporting Station
Overcast Overcast  
Wind Chill: 32°   Ceiling: 4000
Heat Index: 37°   Visibility: 10mi
Dew Point: 21°   Wind: 6mph
Humidity: 52%   Direction: 340°NNW
Pressure: 30.14"   Gusts: NA
Location:  40.7104°N, 76.6275°W
Report Text: KSEG 192053Z AUTO 34005KT 10SM OVC040 03/M06 A3014 RMK AO2 SLP210 T00281061 53010
Loading
Personal Weather Stations






























Interactive Weather Map New forecast layout! Learn more

10-Day Weather Forecast

Advertisements
Track Severe Weather on mobile